createdAt,value
2022-08-07T00:00:39.982Z,15.17
2022-08-07T00:03:09.952Z,15.16
2022-08-07T00:05:38.294Z,15.22
2022-08-07T00:08:07.755Z,15.25
2022-08-07T00:10:36.355Z,15.36
2022-08-07T00:13:23.924Z,15.11
2022-08-07T00:15:54.804Z,15.09
2022-08-07T00:18:25.877Z,15.03
2022-08-07T00:20:57.544Z,14.92
2022-08-07T00:23:30.088Z,14.89
2022-08-07T00:26:02.780Z,14.99
2022-08-07T00:28:35.641Z,14.99
2022-08-07T00:31:17.739Z,14.98
2022-08-07T00:33:47.735Z,15.07
2022-08-07T00:36:16.814Z,15.27
2022-08-07T00:38:45.119Z,15.35
2022-08-07T00:41:14.671Z,15.36
2022-08-07T00:44:00.351Z,15.06
2022-08-07T00:46:33.237Z,14.94
2022-08-07T00:49:03.684Z,14.89
2022-08-07T00:51:56.969Z,14.86
2022-08-07T00:54:20.385Z,14.87
2022-08-07T00:56:51.131Z,15.00
2022-08-07T00:59:20.027Z,15.06
2022-08-07T01:02:02.209Z,14.94
2022-08-07T01:04:32.820Z,14.86
2022-08-07T01:07:03.134Z,14.97
2022-08-07T01:10:04.012Z,15.04
2022-08-07T01:12:29.610Z,15.01
2022-08-07T01:15:01.077Z,15.16
2022-08-07T01:17:30.370Z,15.25
2022-08-07T01:20:06.552Z,15.20
2022-08-07T01:22:46.857Z,15.16
2022-08-07T01:25:54.132Z,14.99
2022-08-07T01:28:15.486Z,14.85
2022-08-07T01:30:43.769Z,14.91
2022-08-07T01:33:13.199Z,14.83
2022-08-07T01:35:54.130Z,14.79
2022-08-07T01:38:25.594Z,14.58
2022-08-07T01:40:55.430Z,14.58
2022-08-07T01:43:25.961Z,14.57
2022-08-07T01:45:55.548Z,14.54
2022-08-07T01:48:30.161Z,14.58
2022-08-07T01:51:08.278Z,14.74
2022-08-07T01:54:09.665Z,14.99
2022-08-07T01:56:49.411Z,15.08
2022-08-07T01:59:24.593Z,15.13
2022-08-07T02:02:04.403Z,15.02
2022-08-07T02:04:40.410Z,14.96
2022-08-07T02:07:35.811Z,14.68
2022-08-07T02:10:15.065Z,14.63
2022-08-07T02:12:46.554Z,14.56
2022-08-07T02:15:23.501Z,14.76
2022-08-07T02:17:54.985Z,14.72
2022-08-07T02:20:24.950Z,14.70
2022-08-07T02:22:54.881Z,14.66
2022-08-07T02:26:10.290Z,14.59
2022-08-07T02:28:14.290Z,14.74
2022-08-07T02:30:53.460Z,14.74
2022-08-07T02:33:21.773Z,14.64
2022-08-07T02:36:29.120Z,14.55
2022-08-07T02:38:38.838Z,14.49
2022-08-07T02:41:10.781Z,14.45
2022-08-07T02:43:40.585Z,14.35
2022-08-07T02:46:12.292Z,14.26
2022-08-07T02:48:54.678Z,14.29
2022-08-07T02:51:42.749Z,14.26
2022-08-07T02:54:14.064Z,14.26
2022-08-07T02:56:45.286Z,14.13
2022-08-07T02:59:24.005Z,14.19
2022-08-07T03:01:56.218Z,14.25
2022-08-07T03:04:25.631Z,14.36
2022-08-07T03:06:55.314Z,14.27
2022-08-07T03:09:43.945Z,14.19
2022-08-07T03:12:21.700Z,14.23
2022-08-07T03:14:52.658Z,14.15
2022-08-07T03:17:22.187Z,14.18
2022-08-07T03:19:54.492Z,14.15
2022-08-07T03:22:24.242Z,14.25
2022-08-07T03:24:59.861Z,14.51
2022-08-07T03:27:42.047Z,14.53
2022-08-07T03:30:18.233Z,14.53
2022-08-07T03:32:58.925Z,14.40
2022-08-07T03:35:43.384Z,14.31
2022-08-07T03:38:21.328Z,14.42
2022-08-07T03:40:57.878Z,14.48
2022-08-07T03:43:32.102Z,14.66
2022-08-07T03:46:01.581Z,14.62
2022-08-07T03:48:31.454Z,14.59
2022-08-07T03:50:59.881Z,14.49
2022-08-07T03:53:50.181Z,14.31
2022-08-07T03:56:33.328Z,14.35
2022-08-07T03:59:08.326Z,14.03
2022-08-07T04:01:43.192Z,14.14
2022-08-07T04:04:17.214Z,14.06
2022-08-07T04:06:45.468Z,14.18
2022-08-07T04:09:15.709Z,14.31
2022-08-07T04:12:26.287Z,14.24
2022-08-07T04:14:38.656Z,14.24
2022-08-07T04:17:20.336Z,14.08
2022-08-07T04:19:52.412Z,14.19
2022-08-07T04:22:23.705Z,14.16
2022-08-07T04:24:58.179Z,14.33
2022-08-07T04:27:26.820Z,14.31
2022-08-07T04:30:01.718Z,14.44
2022-08-07T04:32:34.752Z,14.76
2022-08-07T04:35:05.765Z,14.53
2022-08-07T04:37:52.715Z,14.53
2022-08-07T04:40:29.803Z,14.36
2022-08-07T04:43:01.608Z,14.48
2022-08-07T04:45:57.718Z,14.47
2022-08-07T04:48:34.386Z,14.77
2022-08-07T04:51:09.292Z,14.53
2022-08-07T04:54:05.805Z,14.72
2022-08-07T04:58:07.936Z,14.69
2022-08-07T05:00:10.946Z,14.95
2022-08-07T05:02:25.550Z,14.91
2022-08-07T05:05:01.001Z,14.83
2022-08-07T05:07:36.856Z,15.02
2022-08-07T05:10:20.997Z,14.84
2022-08-07T05:12:57.251Z,14.72
2022-08-07T05:15:35.326Z,14.98
2022-08-07T05:18:09.332Z,15.14
2022-08-07T05:20:42.761Z,15.30
2022-08-07T05:23:16.004Z,15.50
2022-08-07T05:26:12.948Z,15.54
2022-08-07T05:28:33.954Z,15.73
2022-08-07T05:31:03.639Z,15.97
2022-08-07T05:33:36.930Z,15.86
2022-08-07T05:36:06.754Z,15.95
2022-08-07T05:38:59.696Z,16.14
2022-08-07T05:41:23.587Z,16.08
2022-08-07T05:44:12.269Z,15.88
2022-08-07T05:46:42.921Z,15.88
2022-08-07T05:49:14.344Z,15.95
2022-08-07T05:51:43.493Z,16.11
2022-08-07T05:54:30.731Z,16.43
2022-08-07T05:57:04.020Z,16.61
2022-08-07T05:59:39.019Z,16.70
2022-08-07T06:02:28.458Z,16.87
2022-08-07T06:05:01.439Z,16.74
2022-08-07T06:08:14.504Z,16.87
2022-08-07T06:10:20.371Z,16.78
2022-08-07T06:12:48.830Z,17.01
2022-08-07T06:15:19.956Z,16.56
2022-08-07T06:17:50.845Z,16.47
2022-08-07T06:20:25.745Z,16.94
2022-08-07T06:23:25.116Z,17.01
2022-08-07T06:25:57.174Z,17.10
2022-08-07T06:28:27.755Z,17.55
2022-08-07T06:30:58.004Z,17.96
2022-08-07T06:33:27.268Z,17.62
2022-08-07T06:36:06.817Z,17.52
2022-08-07T06:38:58.673Z,17.21
2022-08-07T06:42:01.282Z,17.63
2022-08-07T06:44:22.605Z,17.52
2022-08-07T06:46:53.366Z,17.18
2022-08-07T06:49:28.142Z,17.26
2022-08-07T06:52:02.962Z,17.31
2022-08-07T06:55:33.577Z,17.25
2022-08-07T06:57:39.364Z,17.47
2022-08-07T07:00:18.159Z,17.72
2022-08-07T07:02:53.354Z,17.67
2022-08-07T07:06:04.954Z,17.48
2022-08-07T07:08:18.860Z,17.45
2022-08-07T07:10:56.991Z,17.47
2022-08-07T07:13:56.185Z,17.70
2022-08-07T07:16:22.093Z,17.64
2022-08-07T07:18:53.034Z,17.82
2022-08-07T07:21:27.061Z,17.76
2022-08-07T07:24:12.529Z,17.85
2022-08-07T07:26:51.972Z,17.98
2022-08-07T07:29:56.858Z,17.84
2022-08-07T07:32:13.947Z,17.95
2022-08-07T07:34:48.634Z,18.26
2022-08-07T07:37:45.148Z,18.42
2022-08-07T07:40:14.917Z,18.79
2022-08-07T07:42:47.134Z,18.68
2022-08-07T07:45:22.700Z,18.77
2022-08-07T07:48:08.870Z,18.67
2022-08-07T07:50:40.207Z,18.82
2022-08-07T07:53:13.495Z,18.36
2022-08-07T07:55:54.824Z,18.29
2022-08-07T07:58:27.909Z,18.92
2022-08-07T08:00:57.166Z,18.77
2022-08-07T08:04:09.642Z,19.25
2022-08-07T08:06:15.286Z,20.33
2022-08-07T08:08:44.407Z,20.82
2022-08-07T08:11:32.193Z,21.18
2022-08-07T08:14:05.799Z,21.10
2022-08-07T08:16:38.448Z,20.58
2022-08-07T08:19:18.099Z,21.80
2022-08-07T08:22:14.665Z,22.50
2022-08-07T08:25:09.590Z,21.16
2022-08-07T08:27:56.640Z,20.87
2022-08-07T08:30:32.106Z,22.18
2022-08-07T08:33:05.359Z,21.85
2022-08-07T08:35:49.910Z,22.11
2022-08-07T08:38:20.877Z,22.05
2022-08-07T08:40:57.097Z,21.80
2022-08-07T08:43:42.629Z,20.98
2022-08-07T08:46:24.220Z,21.32
2022-08-07T08:48:58.778Z,20.94
2022-08-07T08:52:00.859Z,20.94
2022-08-07T08:54:24.896Z,21.49
2022-08-07T08:56:54.647Z,21.36
2022-08-07T08:59:29.328Z,20.57
2022-08-07T09:02:02.187Z,19.98
2022-08-07T09:04:40.374Z,20.65
2022-08-07T09:07:14.720Z,20.69
2022-08-07T09:09:59.975Z,20.36
2022-08-07T09:12:53.091Z,20.42
2022-08-07T09:16:23.873Z,20.55
2022-08-07T09:18:37.681Z,20.34
2022-08-07T09:21:34.040Z,20.66
2022-08-07T09:24:33.627Z,20.47
2022-08-07T09:26:57.781Z,20.52
2022-08-07T09:30:03.321Z,20.68
2022-08-07T09:32:47.888Z,20.66
2022-08-07T09:36:05.425Z,20.71
2022-08-07T09:38:18.053Z,20.91
2022-08-07T09:40:59.732Z,20.79
2022-08-07T09:43:40.604Z,21.01
2022-08-07T09:47:31.295Z,20.87
2022-08-07T09:50:01.223Z,20.85
2022-08-07T09:52:37.320Z,20.92
2022-08-07T09:55:16.863Z,20.67
2022-08-07T09:58:15.706Z,20.71
2022-08-07T10:01:02.017Z,20.75
2022-08-07T10:04:06.621Z,21.19
2022-08-07T10:06:55.595Z,21.04
2022-08-07T10:10:00.808Z,20.82
2022-08-07T10:12:52.966Z,21.12
2022-08-07T10:15:43.972Z,20.93
2022-08-07T10:18:26.440Z,21.76
2022-08-07T10:21:19.605Z,21.25
2022-08-07T10:24:10.850Z,21.03
2022-08-07T10:26:54.065Z,21.37
2022-08-07T10:29:38.425Z,21.16
2022-08-07T10:32:36.605Z,21.66
2022-08-07T10:35:20.480Z,21.93
2022-08-07T10:38:20.946Z,21.54
2022-08-07T10:40:54.910Z,21.54
2022-08-07T10:43:34.526Z,21.53
2022-08-07T10:46:10.865Z,21.24
2022-08-07T10:48:48.568Z,21.19
2022-08-07T10:51:39.654Z,21.39
2022-08-07T10:54:14.786Z,21.51
2022-08-07T10:56:55.440Z,21.07
2022-08-07T10:59:37.245Z,21.44
2022-08-07T11:02:33.306Z,21.68
2022-08-07T11:05:14.866Z,21.83
2022-08-07T11:07:58.481Z,22.01
2022-08-07T11:10:33.675Z,22.08
2022-08-07T11:13:16.893Z,21.59
2022-08-07T11:16:07.169Z,21.69
2022-08-07T11:18:39.575Z,21.79
2022-08-07T11:21:14.095Z,22.56
2022-08-07T11:23:50.028Z,22.14
2022-08-07T11:26:23.587Z,22.63
2022-08-07T11:29:00.273Z,22.06
2022-08-07T11:31:39.905Z,22.28
2022-08-07T11:34:17.262Z,22.82
2022-08-07T11:36:56.428Z,22.36
2022-08-07T11:39:59.492Z,22.21
2022-08-07T11:42:29.621Z,22.59
2022-08-07T11:45:06.058Z,22.22
2022-08-07T11:47:55.819Z,22.32
2022-08-07T11:50:44.621Z,21.76
2022-08-07T11:53:36.302Z,22.63
2022-08-07T11:56:27.157Z,22.21
2022-08-07T11:59:02.352Z,21.86
2022-08-07T12:02:00.119Z,22.13
2022-08-07T12:04:44.275Z,22.11
2022-08-07T12:07:26.989Z,22.27
2022-08-07T12:09:58.681Z,21.90
2022-08-07T12:12:36.017Z,22.24
2022-08-07T12:15:35.687Z,22.28
2022-08-07T12:18:08.012Z,22.31
2022-08-07T12:20:37.846Z,21.93
2022-08-07T12:24:07.466Z,21.86
2022-08-07T12:26:35.441Z,22.09
2022-08-07T12:29:13.837Z,22.14
2022-08-07T12:31:52.872Z,22.52
2022-08-07T12:34:34.592Z,22.80
2022-08-07T12:37:08.665Z,22.23
2022-08-07T12:39:51.383Z,22.39
2022-08-07T12:42:27.612Z,22.69
2022-08-07T12:44:57.891Z,22.92
2022-08-07T12:47:31.059Z,22.96
2022-08-07T12:50:34.027Z,23.10
2022-08-07T12:52:58.732Z,22.75
2022-08-07T12:55:41.370Z,22.50
2022-08-07T12:58:21.497Z,22.45
2022-08-07T13:01:09.714Z,21.81
2022-08-07T13:04:02.351Z,21.59
2022-08-07T13:07:00.163Z,21.52
2022-08-07T13:10:19.372Z,22.21
2022-08-07T13:12:33.843Z,22.22
2022-08-07T13:15:09.478Z,22.60
2022-08-07T13:17:49.598Z,22.63
2022-08-07T13:20:36.521Z,22.76
2022-08-07T13:24:01.680Z,22.64
2022-08-07T13:26:04.672Z,22.92
2022-08-07T13:28:39.318Z,22.86
2022-08-07T13:31:13.515Z,23.00
2022-08-07T13:34:31.190Z,23.19
2022-08-07T13:36:42.634Z,22.35
2022-08-07T13:39:48.979Z,21.80
2022-08-07T13:42:10.412Z,21.46
2022-08-07T13:44:39.788Z,21.30
2022-08-07T13:47:15.977Z,21.43
2022-08-07T13:50:35.898Z,21.22
2022-08-07T13:52:46.997Z,21.37
2022-08-07T13:55:26.362Z,21.51
2022-08-07T13:58:27.880Z,21.66
2022-08-07T14:01:09.108Z,21.10
2022-08-07T14:04:07.352Z,21.35
2022-08-07T14:06:32.975Z,21.46
2022-08-07T14:09:04.579Z,21.63
2022-08-07T14:11:53.183Z,21.58
2022-08-07T14:14:30.737Z,22.11
2022-08-07T14:17:31.969Z,21.66
2022-08-07T14:20:43.114Z,21.69
2022-08-07T14:22:42.686Z,21.50
2022-08-07T14:25:13.646Z,21.66
2022-08-07T14:28:11.801Z,21.26
2022-08-07T14:30:36.406Z,21.22
2022-08-07T14:33:10.108Z,21.31
2022-08-07T14:35:47.542Z,21.37
2022-08-07T14:38:26.270Z,21.63
2022-08-07T14:41:03.870Z,21.65
2022-08-07T14:43:58.117Z,21.48
2022-08-07T14:46:31.508Z,21.55
2022-08-07T14:49:55.928Z,21.33
2022-08-07T14:52:04.770Z,21.03
2022-08-07T14:54:41.957Z,21.22
2022-08-07T14:57:15.006Z,21.13
2022-08-07T15:00:05.466Z,21.37
2022-08-07T15:02:37.272Z,21.41
2022-08-07T15:05:19.743Z,21.59
2022-08-07T15:07:52.012Z,21.55
2022-08-07T15:10:25.090Z,21.20
2022-08-07T15:12:59.509Z,21.18
2022-08-07T15:15:38.506Z,21.04
2022-08-07T15:18:28.329Z,21.03
2022-08-07T15:25:15.254Z,20.97
2022-08-07T15:26:44.107Z,21.13
2022-08-07T15:30:10.226Z,21.04
2022-08-07T15:32:06.390Z,21.16
2022-08-07T15:34:50.486Z,21.22
2022-08-07T15:37:28.284Z,21.41
2022-08-07T15:39:59.915Z,21.49
2022-08-07T15:42:51.745Z,21.66
2022-08-07T15:45:55.199Z,21.51
2022-08-07T15:48:25.670Z,21.46
2022-08-07T15:51:08.103Z,21.55
2022-08-07T15:53:51.771Z,21.61
2022-08-07T15:56:24.409Z,21.68
2022-08-07T15:58:55.189Z,21.81
2022-08-07T16:01:39.115Z,21.94
2022-08-07T16:04:15.369Z,22.02
2022-08-07T16:06:46.508Z,21.87
2022-08-07T16:09:22.422Z,21.72
2022-08-07T16:12:04.817Z,21.78
2022-08-07T16:14:42.205Z,22.05
2022-08-07T16:18:02.420Z,21.88
2022-08-07T16:20:42.403Z,21.78
2022-08-07T16:23:53.171Z,21.49
2022-08-07T16:26:14.560Z,21.17
2022-08-07T16:29:18.742Z,21.57
2022-08-07T16:32:00.575Z,21.50
2022-08-07T16:34:38.185Z,21.43
2022-08-07T16:38:03.754Z,20.99
2022-08-07T16:41:02.282Z,20.97
2022-08-07T16:44:02.499Z,20.91
2022-08-07T16:47:12.463Z,20.98
2022-08-07T16:50:35.866Z,20.86
2022-08-07T16:54:02.103Z,20.85
2022-08-07T16:56:20.343Z,20.63
2022-08-07T16:59:10.546Z,20.38
2022-08-07T17:01:51.009Z,20.34
2022-08-07T17:04:29.512Z,20.10
2022-08-07T17:07:08.344Z,20.02
2022-08-07T17:10:06.253Z,19.89
2022-08-07T17:12:45.466Z,19.78
2022-08-07T17:15:20.992Z,19.66
2022-08-07T17:17:58.667Z,19.67
2022-08-07T17:20:32.669Z,19.52
2022-08-07T17:23:08.833Z,19.44
2022-08-07T17:25:52.169Z,19.30
2022-08-07T17:28:31.281Z,19.23
2022-08-07T17:31:16.292Z,19.22
2022-08-07T17:34:32.677Z,19.11
2022-08-07T17:36:57.964Z,19.13
2022-08-07T17:39:58.259Z,19.02
2022-08-07T17:42:34.678Z,18.78
2022-08-07T17:45:15.047Z,18.99
2022-08-07T17:47:54.098Z,18.97
2022-08-07T17:50:30.556Z,18.92
2022-08-07T17:53:06.119Z,18.91
2022-08-07T17:55:55.866Z,18.76
2022-08-07T17:58:34.271Z,18.65
2022-08-07T18:01:21.070Z,18.62
2022-08-07T18:04:07.152Z,18.63
2022-08-07T18:06:39.284Z,18.59
2022-08-07T18:09:17.995Z,18.59
2022-08-07T18:12:19.643Z,18.43
2022-08-07T18:15:01.590Z,18.41
2022-08-07T18:18:45.242Z,18.43
2022-08-07T18:21:10.084Z,18.37
2022-08-07T18:23:43.498Z,18.33
2022-08-07T18:26:22.841Z,18.29
2022-08-07T18:29:05.245Z,18.16
2022-08-07T18:32:01.405Z,18.22
2022-08-07T18:35:00.924Z,17.99
2022-08-07T18:38:59.589Z,18.24
2022-08-07T18:40:42.716Z,18.16
2022-08-07T18:43:42.554Z,18.23
2022-08-07T18:46:24.492Z,17.97
2022-08-07T18:50:19.570Z,18.09
2022-08-07T18:52:25.606Z,17.99
2022-08-07T18:55:40.497Z,18.01
2022-08-07T18:58:16.905Z,17.84
2022-08-07T19:00:54.959Z,17.86
2022-08-07T19:03:36.166Z,17.93
2022-08-07T19:06:10.107Z,17.81
2022-08-07T19:09:55.794Z,17.82
2022-08-07T19:12:09.405Z,17.86
2022-08-07T19:14:51.103Z,17.85
2022-08-07T19:18:06.026Z,17.80
2022-08-07T19:20:28.731Z,17.67
2022-08-07T19:23:18.479Z,17.79
2022-08-07T19:26:25.369Z,17.72
2022-08-07T19:30:54.480Z,17.67
2022-08-07T19:31:58.688Z,17.70
2022-08-07T19:34:32.718Z,17.75
2022-08-07T19:37:10.202Z,17.67
2022-08-07T19:39:57.263Z,17.57
2022-08-07T19:42:33.584Z,17.71
2022-08-07T19:45:13.047Z,17.62
2022-08-07T19:48:01.012Z,17.48
2022-08-07T19:50:41.152Z,17.52
2022-08-07T19:54:32.756Z,17.74
2022-08-07T19:56:06.285Z,17.65
2022-08-07T19:58:52.852Z,17.57
2022-08-07T20:01:22.626Z,17.49
2022-08-07T20:04:11.394Z,17.60
2022-08-07T20:06:59.159Z,17.51
2022-08-07T20:10:35.219Z,17.44
2022-08-07T20:12:31.203Z,17.58
2022-08-07T20:15:09.542Z,17.25
2022-08-07T20:17:44.472Z,17.19
2022-08-07T20:20:26.653Z,17.15
2022-08-07T20:23:23.274Z,17.21
2022-08-07T20:25:53.161Z,17.23
2022-08-07T20:28:29.618Z,17.21
2022-08-07T20:31:01.595Z,17.20
2022-08-07T20:33:36.625Z,17.09
2022-08-07T20:36:08.790Z,17.02
2022-08-07T20:38:59.357Z,16.86
2022-08-07T20:41:27.041Z,17.04
2022-08-07T20:43:57.525Z,16.98
2022-08-07T20:46:32.387Z,17.12
2022-08-07T20:50:00.114Z,17.03
2022-08-07T20:51:51.559Z,17.08
2022-08-07T20:54:29.934Z,17.09
2022-08-07T20:57:02.843Z,17.01
2022-08-07T21:00:06.762Z,17.25
2022-08-07T21:02:54.508Z,17.51
2022-08-07T21:05:43.067Z,17.21
2022-08-07T21:08:15.526Z,17.21
2022-08-07T21:10:45.389Z,17.02
2022-08-07T21:13:19.581Z,17.05
2022-08-07T21:15:58.303Z,16.93
2022-08-07T21:18:33.948Z,16.99
2022-08-07T21:21:03.972Z,17.05
2022-08-07T21:23:42.658Z,17.07
2022-08-07T21:26:23.377Z,17.17
2022-08-07T21:28:55.946Z,17.03
2022-08-07T21:32:42.023Z,16.86
2022-08-07T21:34:32.339Z,16.53
2022-08-07T21:37:10.084Z,16.93
2022-08-07T21:39:51.794Z,16.89
2022-08-07T21:42:42.778Z,16.74
2022-08-07T21:46:04.822Z,16.75
2022-08-07T21:48:28.818Z,16.80
2022-08-07T21:51:12.477Z,16.77
2022-08-07T21:53:53.275Z,16.87
2022-08-07T21:56:35.995Z,17.01
2022-08-07T21:59:07.920Z,17.02
2022-08-07T22:02:07.043Z,17.17
2022-08-07T22:04:29.572Z,17.12
2022-08-07T22:07:02.320Z,17.17
2022-08-07T22:09:37.959Z,16.98
2022-08-07T22:12:17.701Z,16.73
2022-08-07T22:14:59.418Z,16.72
2022-08-07T22:17:35.932Z,16.65
2022-08-07T22:20:10.784Z,16.58
2022-08-07T22:22:57.946Z,16.78
2022-08-07T22:25:38.893Z,16.78
2022-08-07T22:28:31.189Z,16.85
2022-08-07T22:31:06.654Z,17.10
2022-08-07T22:33:57.100Z,16.93
2022-08-07T22:36:48.152Z,16.78
2022-08-07T22:39:29.787Z,16.88
2022-08-07T22:42:19.917Z,16.86
2022-08-07T22:44:58.925Z,16.71
2022-08-07T22:47:49.249Z,16.71
2022-08-07T22:50:37.449Z,16.46
2022-08-07T22:54:07.110Z,16.67
2022-08-07T22:56:38.869Z,16.62
2022-08-07T22:59:32.728Z,16.69
2022-08-07T23:02:08.184Z,16.45
2022-08-07T23:06:10.234Z,16.22
2022-08-07T23:08:30.640Z,16.49
2022-08-07T23:11:13.233Z,16.22
2022-08-07T23:14:10.575Z,16.31
2022-08-07T23:16:55.884Z,16.48
2022-08-07T23:19:58.539Z,16.70
2022-08-07T23:22:39.650Z,16.71
2022-08-07T23:25:19.111Z,16.73
2022-08-07T23:28:22.047Z,16.54
2022-08-07T23:31:06.586Z,16.28
2022-08-07T23:34:22.573Z,16.03
2022-08-07T23:37:19.256Z,15.96
2022-08-07T23:39:41.962Z,15.86
2022-08-07T23:42:21.624Z,16.19
2022-08-07T23:45:07.196Z,16.33
2022-08-07T23:47:53.705Z,16.38
2022-08-07T23:50:34.877Z,16.19
2022-08-07T23:53:16.704Z,16.16
2022-08-07T23:55:55.865Z,16.06
2022-08-07T23:58:37.578Z,16.02
